Morgantown, WV

3:36 PM EST on November 24, 2014 (GMT -0500)
Brooks green roof | Change Station
CLOSE
Current Station
Personal Weather Station
Location: Morgantown, WV
Elevation: 873 ft
Nearby Weather Stations
Active Advisory: Wind Advisory Active Notice: Public Information Statement

Elev 873 ft 39.64 °N, 79.96 °W | Updated 2 minutes ago

Overcast
Overcast
70.3 °F
Feels Like 77 °F
N
21.0
Wind Variable Wind from WSW
Gusts 21.0 mph

Today
High -- | Low -- °F
--% Chance of Precip.
Yesterday
High -- | Low -- °F
Precip. -- in
7:14 AM 4:59 PM
Waxing Crescent, 7% visible
Pressure 29.50 in
Visibility 10.0 miles
Clouds Overcast 8000 ft
Heat Index 77 °F
Dew Point 45 °F
Humidity 40%
Rainfall 0.02 in
Snow Depth Not available.
UV 0 out of 12
Pollen .10 out of 12
Air Quality Not available.
Flu Activity Not available.
METAR KMGW 241953Z 23009G22KT 10SM OVC080 21/03 A2952 RMK AO2 PK WND 24028/1903 SLP990 T02060033

More Conditions Fewer Conditions

Pressure 29.50 in
Visibility 10.0 miles
Clouds Overcast 8000 ft
Heat Index 77 °F
Dew Point 45 °F
Humidity 40%
Rainfall 0.02 in
Snow Depth Not available.
UV 0 out of 12
Pollen .10 out of 12
Air Quality Not available.
Flu Activity Not available.
METAR KMGW 241953Z 23009G22KT 10SM OVC080 21/03 A2952 RMK AO2 PK WND 24028/1903 SLP990 T02060033

More Conditions Fewer Conditions

10-Day Weather Forecast

Almanac

Astronomy

Nov. 24, 2014 Rise Set
Actual Time
Civil Twilight
Nautical Twilight
Astronomical Twilight
Moon
Length of Visible Light
Length of Day
Tomorrow will be .
, % of the Moon is Illuminated

Today's Extremes

State Highs State Lows

Community

WunderPhotos

Upload Photos

1,773,406 photos uploaded!

WunderBlogs® & News

Nearby

Air Quality

  Air Quality AQ Index Pollutant
Not available.

Snow Depth

Station Depth Elevation

Earthquake Activity

City Distance Mag. Time & Date
Minimum magnitude displayed is 2.5.

Coastal Water Temperatures

Place Temperature

Nearby Weather Stations